Terminal Aerodrome Forecast
Issued by NWS

Home | Current Version | Previous Version | Text Only | Print | Product List | Glossary On
Versions: 1 2 3 4 5 6 7 8 9 10 11 12 13 14 15 16 17 18 19 20 21 22 23
000
FTUS42 KGSP 011134
TAFHKY
TAF
KHKY 011134Z 0112/0212 00000KT P6SM BKN120
     FM011500 19007KT P6SM BKN200
     FM020000 18007KT P6SM -SHRA OVC015
     FM020200 18006KT 3SM -SHRA OVC008
     FM020600 20012KT 2SM -SHRA BR OVC003=

USA.gov is the U.S. government's official web portal to all federal, state and local government web resources and services.